createdAt,value
2018-02-22T00:00:50.315Z,0
2018-02-22T00:02:04.298Z,0
2018-02-22T00:03:18.056Z,0
2018-02-22T00:04:31.877Z,0
2018-02-22T00:05:46.113Z,0
2018-02-22T00:06:59.864Z,0
2018-02-22T00:08:14.089Z,0
2018-02-22T00:09:27.879Z,0
2018-02-22T00:10:42.344Z,0
2018-02-22T00:11:55.853Z,0
2018-02-22T00:13:09.851Z,0
2018-02-22T00:14:23.812Z,0
2018-02-22T00:15:38.296Z,0
2018-02-22T00:16:52.557Z,0
2018-02-22T00:18:06.826Z,0
2018-02-22T00:19:21.148Z,0
2018-02-22T00:20:35.388Z,0
2018-02-22T00:21:50.097Z,0
2018-02-22T00:23:04.098Z,0
2018-02-22T00:24:18.109Z,0
2018-02-22T00:25:32.627Z,0
2018-02-22T00:26:46.862Z,0
2018-02-22T00:28:00.115Z,0
2018-02-22T00:29:14.381Z,0
2018-02-22T00:30:28.932Z,0
2018-02-22T00:31:42.676Z,0
2018-02-22T00:32:57.161Z,0
2018-02-22T00:34:11.407Z,0
2018-02-22T00:35:24.911Z,0
2018-02-22T00:36:39.540Z,0
2018-02-22T00:37:53.992Z,0
2018-02-22T00:39:08.064Z,0
2018-02-22T00:40:22.332Z,0
2018-02-22T00:41:36.584Z,0
2018-02-22T00:42:51.093Z,0
2018-02-22T00:44:04.582Z,0
2018-02-22T00:45:18.559Z,0
2018-02-22T00:46:32.826Z,0
2018-02-22T00:47:46.841Z,0
2018-02-22T00:49:01.320Z,0
2018-02-22T00:50:15.623Z,0
2018-02-22T00:51:30.089Z,0
2018-02-22T00:52:44.193Z,0
2018-02-22T00:53:57.934Z,0
2018-02-22T00:55:12.185Z,0
2018-02-22T00:56:26.420Z,0
2018-02-22T00:57:40.621Z,0
2018-02-22T00:58:54.584Z,0
2018-02-22T01:00:08.608Z,0
2018-02-22T01:01:22.861Z,0
2018-02-22T01:02:37.159Z,0
2018-02-22T01:03:51.382Z,0
2018-02-22T01:05:05.604Z,0
2018-02-22T01:06:19.614Z,0
2018-02-22T01:07:34.081Z,0
2018-02-22T01:08:48.310Z,0
2018-02-22T01:10:02.375Z,0
2018-02-22T01:11:16.565Z,0
2018-02-22T01:12:30.784Z,0
2018-02-22T01:13:45.063Z,0
2018-02-22T01:14:59.301Z,0
2018-02-22T01:16:13.348Z,0
2018-02-22T01:17:27.343Z,0
2018-02-22T01:18:41.859Z,0
2018-02-22T01:19:56.100Z,0
2018-02-22T01:21:10.079Z,0
2018-02-22T01:22:24.536Z,0
2018-02-22T01:23:38.769Z,0
2018-02-22T01:24:52.521Z,0
2018-02-22T01:26:06.638Z,0
2018-02-22T01:27:20.874Z,0
2018-02-22T01:28:34.838Z,0
2018-02-22T01:29:49.028Z,0
2018-02-22T01:31:03.494Z,0
2018-02-22T01:32:17.250Z,0
2018-02-22T01:33:31.459Z,0
2018-02-22T01:34:44.710Z,0
2018-02-22T01:35:58.687Z,0
2018-02-22T01:37:13.420Z,0
2018-02-22T01:38:27.665Z,0
2018-02-22T01:39:41.640Z,0
2018-02-22T01:40:55.858Z,0
2018-02-22T01:42:10.332Z,0
2018-02-22T01:43:25.062Z,0
2018-02-22T01:44:39.581Z,0
2018-02-22T01:45:54.059Z,0
2018-02-22T01:47:08.798Z,0
2018-02-22T01:48:22.794Z,0
2018-02-22T01:49:36.294Z,0
2018-02-22T01:50:50.076Z,0
2018-02-22T01:52:04.073Z,0
2018-02-22T01:53:18.288Z,0
2018-02-22T01:54:32.764Z,0
2018-02-22T01:55:46.534Z,0
2018-02-22T01:57:00.262Z,0
2018-02-22T01:58:14.259Z,0
2018-02-22T01:59:28.347Z,0
2018-02-22T02:00:42.326Z,0
2018-02-22T02:01:56.764Z,0
2018-02-22T02:03:11.006Z,0
2018-02-22T02:04:25.243Z,0
2018-02-22T02:05:38.720Z,0
2018-02-22T02:06:53.222Z,0
2018-02-22T02:08:07.448Z,0
2018-02-22T02:09:21.675Z,0
2018-02-22T02:10:36.153Z,0
2018-02-22T02:11:50.420Z,0
2018-02-22T02:13:03.874Z,0
2018-02-22T02:14:17.890Z,0
2018-02-22T02:15:32.349Z,0
2018-02-22T02:16:46.567Z,0
2018-02-22T02:18:01.079Z,0
2018-02-22T02:19:15.537Z,0
2018-02-22T02:20:29.795Z,0
2018-02-22T02:21:43.305Z,0
2018-02-22T02:22:57.491Z,0
2018-02-22T02:24:11.708Z,0
2018-02-22T02:25:25.900Z,0
2018-02-22T02:26:39.899Z,0
2018-02-22T02:27:54.121Z,0
2018-02-22T02:29:08.579Z,0
2018-02-22T02:30:22.582Z,0
2018-02-22T02:31:36.291Z,0
2018-02-22T02:32:50.378Z,0
2018-02-22T02:34:04.854Z,0
2018-02-22T02:35:19.562Z,0
2018-02-22T02:36:34.057Z,0
2018-02-22T02:37:48.532Z,0
2018-02-22T02:39:03.002Z,0
2018-02-22T02:40:17.468Z,0
2018-02-22T02:41:31.915Z,0
2018-02-22T02:42:46.158Z,0
2018-02-22T02:43:59.649Z,0
2018-02-22T02:45:14.116Z,0
2018-02-22T02:46:28.101Z,0
2018-02-22T02:47:42.577Z,0
2018-02-22T02:48:56.818Z,0
2018-02-22T02:50:10.809Z,0
2018-02-22T02:51:25.285Z,0
2018-02-22T02:52:38.784Z,0
2018-02-22T02:53:52.763Z,0
2018-02-22T02:55:07.007Z,0
2018-02-22T02:56:21.237Z,0
2018-02-22T02:57:35.203Z,0
2018-02-22T02:58:49.453Z,0
2018-02-22T03:00:03.970Z,0
2018-02-22T03:01:18.492Z,0
2018-02-22T03:02:33.005Z,0
2018-02-22T03:03:47.722Z,0
2018-02-22T03:05:02.419Z,0
2018-02-22T03:06:16.295Z,0
2018-02-22T03:07:30.304Z,0
2018-02-22T03:08:44.523Z,0
2018-02-22T03:09:58.507Z,0
2018-02-22T03:11:12.735Z,0
2018-02-22T03:12:26.986Z,0
2018-02-22T03:13:41.435Z,0
2018-02-22T03:14:55.623Z,0
2018-02-22T03:16:10.129Z,0
2018-02-22T03:17:23.866Z,0
2018-02-22T03:18:38.073Z,0
2018-02-22T03:19:52.790Z,0
2018-02-22T03:21:22.142Z,0
2018-02-22T03:22:36.136Z,0
2018-02-22T03:23:49.874Z,0
2018-02-22T03:25:04.551Z,0
2018-02-22T03:26:18.008Z,0
2018-02-22T03:27:32.498Z,0
2018-02-22T03:28:46.246Z,0
2018-02-22T03:30:00.956Z,0
2018-02-22T03:31:15.210Z,0
2018-02-22T03:32:29.189Z,0
2018-02-22T03:33:43.456Z,0
2018-02-22T03:34:57.940Z,0
2018-02-22T03:36:12.174Z,0
2018-02-22T03:37:26.646Z,0
2018-02-22T03:38:41.001Z,0
2018-02-22T03:39:54.968Z,0
2018-02-22T03:41:08.723Z,0
2018-02-22T03:42:22.741Z,0
2018-02-22T03:43:37.196Z,0
2018-02-22T03:44:51.693Z,0
2018-02-22T03:46:06.070Z,0
2018-02-22T03:47:20.103Z,0
2018-02-22T03:48:34.073Z,0
2018-02-22T03:49:48.057Z,0
2018-02-22T03:51:02.529Z,0
2018-02-22T03:52:16.759Z,0
2018-02-22T03:53:30.981Z,0
2018-02-22T03:54:45.414Z,0
2018-02-22T03:56:00.124Z,0
2018-02-22T03:57:14.326Z,0
2018-02-22T03:58:28.298Z,0
2018-02-22T03:59:42.299Z,0
2018-02-22T04:00:56.769Z,0
2018-02-22T04:02:10.760Z,0
2018-02-22T04:03:24.516Z,0
2018-02-22T04:04:38.225Z,0
2018-02-22T04:05:52.439Z,0
2018-02-22T04:07:06.454Z,0
2018-02-22T04:08:20.191Z,0
2018-02-22T04:09:33.904Z,0
2018-02-22T04:10:47.678Z,0
2018-02-22T04:12:01.507Z,0
2018-02-22T04:13:15.506Z,0
2018-02-22T04:14:28.725Z,0
2018-02-22T04:15:42.743Z,0
2018-02-22T04:16:57.223Z,0
2018-02-22T04:18:11.229Z,0
2018-02-22T04:19:25.313Z,0
2018-02-22T04:20:38.816Z,0
2018-02-22T04:21:53.039Z,0
2018-02-22T04:23:07.262Z,0
2018-02-22T04:24:21.503Z,0
2018-02-22T04:25:35.255Z,0
2018-02-22T04:26:49.485Z,0
2018-02-22T04:28:02.977Z,0
2018-02-22T04:29:17.454Z,0
2018-02-22T04:30:31.892Z,0
2018-02-22T04:31:46.368Z,0
2018-02-22T04:33:00.726Z,0
2018-02-22T04:34:15.108Z,0
2018-02-22T04:36:01.721Z,0
2018-02-22T04:37:16.199Z,0
2018-02-22T04:38:30.330Z,0
2018-02-22T04:39:44.734Z,0
2018-02-22T04:40:58.974Z,0
2018-02-22T04:42:12.987Z,0
2018-02-22T04:43:27.215Z,0
2018-02-22T04:44:46.998Z,0
2018-02-22T04:46:01.033Z,0
2018-02-22T04:47:15.300Z,0
2018-02-22T04:48:29.563Z,0
2018-02-22T04:49:43.322Z,0
2018-02-22T04:50:56.847Z,0
2018-02-22T04:52:10.627Z,0
2018-02-22T04:53:24.643Z,0
2018-02-22T04:54:38.379Z,0
2018-02-22T04:55:52.373Z,0
2018-02-22T04:57:06.613Z,0
2018-02-22T04:58:20.853Z,0
2018-02-22T04:59:35.117Z,0
2018-02-22T05:00:49.366Z,0
2018-02-22T05:02:03.368Z,0
2018-02-22T05:03:16.890Z,0
2018-02-22T05:04:31.118Z,0
2018-02-22T05:05:45.121Z,0
2018-02-22T05:06:59.634Z,0
2018-02-22T05:08:13.632Z,0
2018-02-22T05:09:27.602Z,0
2018-02-22T05:10:42.072Z,0
2018-02-22T05:11:55.840Z,0
2018-02-22T05:13:10.343Z,0
2018-02-22T05:14:24.612Z,0
2018-02-22T05:15:38.856Z,0
2018-02-22T05:16:53.072Z,0
2018-02-22T05:18:07.432Z,0
2018-02-22T05:19:21.171Z,0
2018-02-22T05:20:35.641Z,0
2018-02-22T05:21:49.636Z,0
2018-02-22T05:23:04.137Z,0
2018-02-22T05:24:18.449Z,0
2018-02-22T05:25:32.185Z,0
2018-02-22T05:26:46.173Z,0
2018-02-22T05:28:00.376Z,0
2018-02-22T05:29:14.648Z,0
2018-02-22T05:30:28.925Z,0
2018-02-22T05:31:43.469Z,0
2018-02-22T05:32:57.752Z,0
2018-02-22T05:34:12.042Z,0
2018-02-22T05:35:25.787Z,0
2018-02-22T05:36:39.744Z,0
2018-02-22T05:37:54.215Z,0
2018-02-22T05:39:08.500Z,0
2018-02-22T05:40:22.758Z,0
2018-02-22T05:41:36.744Z,0
2018-02-22T05:42:51.234Z,0
2018-02-22T05:44:05.005Z,0
2018-02-22T05:45:19.022Z,0
2018-02-22T05:46:33.044Z,0
2018-02-22T05:47:46.813Z,0
2018-02-22T05:49:00.841Z,0
2018-02-22T05:50:15.592Z,0
2018-02-22T05:51:30.189Z,0
2018-02-22T05:52:43.948Z,4
2018-02-22T05:53:58.005Z,4
2018-02-22T05:55:11.794Z,0
2018-02-22T05:56:26.120Z,4
2018-02-22T05:57:40.620Z,4
2018-02-22T05:58:55.089Z,4
2018-02-22T06:00:09.346Z,4
2018-02-22T06:01:23.872Z,8
2018-02-22T06:02:38.213Z,8
2018-02-22T06:03:52.454Z,8
2018-02-22T06:05:06.942Z,12
2018-02-22T06:06:21.191Z,12
2018-02-22T06:07:35.413Z,16
2018-02-22T06:08:49.662Z,20
2018-02-22T06:10:03.652Z,24
2018-02-22T06:11:17.669Z,32
2018-02-22T06:12:31.908Z,32
2018-02-22T06:13:45.910Z,40
2018-02-22T06:15:00.485Z,48
2018-02-22T06:16:14.499Z,56
2018-02-22T06:17:28.979Z,64
2018-02-22T06:18:43.223Z,76
2018-02-22T06:19:57.956Z,84
2018-02-22T06:21:11.965Z,96
2018-02-22T06:22:26.009Z,108
2018-02-22T06:23:39.791Z,120
2018-02-22T06:24:54.393Z,136
2018-02-22T06:26:08.895Z,152
2018-02-22T06:27:22.660Z,168
2018-02-22T06:28:36.901Z,184
2018-02-22T06:29:51.140Z,200
2018-02-22T06:31:05.168Z,220
2018-02-22T06:32:19.468Z,240
2018-02-22T06:33:33.457Z,260
2018-02-22T06:34:47.477Z,284
2018-02-22T06:36:01.735Z,304
2018-02-22T06:37:15.708Z,324
2018-02-22T06:38:30.436Z,348
2018-02-22T06:39:44.470Z,372
2018-02-22T06:40:58.476Z,400
2018-02-22T06:42:12.435Z,420
2018-02-22T06:43:27.195Z,448
2018-02-22T06:44:41.212Z,468
2018-02-22T06:45:55.454Z,492
2018-02-22T06:47:09.476Z,520
2018-02-22T06:48:23.729Z,540
2018-02-22T06:49:38.223Z,568
2018-02-22T06:50:52.693Z,588
2018-02-22T06:52:06.409Z,612
2018-02-22T06:53:20.149Z,636
2018-02-22T06:54:34.382Z,656
2018-02-22T06:55:48.371Z,676
2018-02-22T06:57:02.660Z,700
2018-02-22T06:58:17.251Z,724
2018-02-22T06:59:31.267Z,744
2018-02-22T07:00:45.508Z,764
2018-02-22T07:01:59.495Z,784
2018-02-22T07:03:12.978Z,808
2018-02-22T07:04:27.228Z,828
2018-02-22T07:05:41.481Z,848
2018-02-22T07:06:55.264Z,864
2018-02-22T07:08:09.283Z,888
2018-02-22T07:09:23.534Z,904
2018-02-22T07:10:38.028Z,928
2018-02-22T07:11:52.544Z,944
2018-02-22T07:13:06.571Z,960
2018-02-22T07:14:21.309Z,980
2018-02-22T07:15:35.336Z,1000
2018-02-22T07:16:49.134Z,1008
2018-02-22T07:18:03.130Z,1024
2018-02-22T07:19:17.418Z,1040
2018-02-22T07:20:30.977Z,1052
2018-02-22T07:21:45.558Z,1064
2018-02-22T07:23:00.130Z,1080
2018-02-22T07:24:26.489Z,1104
2018-02-22T07:25:40.800Z,1112
2018-02-22T07:26:55.390Z,1132
2018-02-22T07:28:10.232Z,1144
2018-02-22T07:29:23.999Z,1160
2018-02-22T07:30:38.349Z,1180
2018-02-22T07:31:52.349Z,1192
2018-02-22T07:33:06.616Z,1208
2018-02-22T07:34:21.033Z,1220
2018-02-22T07:35:35.297Z,1236
2018-02-22T07:36:49.766Z,1248
2018-02-22T07:38:03.757Z,1260
2018-02-22T07:39:17.728Z,1276
2018-02-22T07:40:31.743Z,1288
2018-02-22T07:41:45.712Z,1300
2018-02-22T07:43:00.228Z,1312
2018-02-22T07:44:14.007Z,1328
2018-02-22T07:45:28.500Z,1336
2018-02-22T07:46:42.489Z,1348
2018-02-22T07:47:55.772Z,1352
2018-02-22T07:49:24.377Z,1372
2018-02-22T07:50:38.602Z,1380
2018-02-22T07:51:52.611Z,1384
2018-02-22T07:53:06.874Z,1400
2018-02-22T07:54:21.370Z,1408
2018-02-22T07:55:35.648Z,1420
2018-02-22T07:56:49.645Z,1432
2018-02-22T07:58:03.704Z,1436
2018-02-22T07:59:17.685Z,1448
2018-02-22T08:00:31.438Z,1456
2018-02-22T08:01:45.232Z,1468
2018-02-22T08:02:59.558Z,1480
2018-02-22T08:04:14.310Z,1488
2018-02-22T08:05:28.327Z,1496
2018-02-22T08:06:42.109Z,1504
2018-02-22T08:07:55.852Z,1512
2018-02-22T08:09:09.873Z,1516
2018-02-22T08:10:23.898Z,1524
2018-02-22T08:11:38.199Z,1524
2018-02-22T08:12:52.461Z,1528
2018-02-22T08:14:06.750Z,1540
2018-02-22T08:15:20.889Z,1552
2018-02-22T08:16:35.132Z,1556
2018-02-22T08:17:49.372Z,1564
2018-02-22T08:19:03.688Z,1568
2018-02-22T08:20:17.948Z,1580
2018-02-22T08:21:31.750Z,1596
2018-02-22T08:22:46.237Z,1596
2018-02-22T08:24:00.494Z,1600
2018-02-22T08:25:13.984Z,1608
2018-02-22T08:26:28.258Z,1620
2018-02-22T08:27:42.292Z,1624
2018-02-22T08:28:56.526Z,1628
2018-02-22T08:30:10.536Z,1628
2018-02-22T08:31:24.542Z,1636
2018-02-22T08:32:38.812Z,1652
2018-02-22T08:33:52.830Z,1660
2018-02-22T08:35:06.113Z,1664
2018-02-22T08:36:21.045Z,1680
2018-02-22T08:37:35.073Z,1684
2018-02-22T08:38:49.578Z,1696
2018-02-22T08:40:03.372Z,1688
2018-02-22T08:41:18.050Z,1696
2018-02-22T08:42:31.083Z,1712
2018-02-22T08:43:45.833Z,1708
2018-02-22T08:45:00.595Z,1716
2018-02-22T08:46:15.327Z,1700
2018-02-22T08:47:29.588Z,1708
2018-02-22T08:48:43.835Z,1720
2018-02-22T08:49:58.623Z,1720
2018-02-22T08:51:12.914Z,1724
2018-02-22T08:52:26.956Z,1720
2018-02-22T08:53:41.446Z,1732
2018-02-22T08:54:55.451Z,1732
2018-02-22T08:56:09.196Z,1736
2018-02-22T08:57:23.713Z,1740
2018-02-22T08:58:38.164Z,1744
2018-02-22T08:59:52.648Z,1744
2018-02-22T09:01:06.416Z,1752
2018-02-22T09:02:20.184Z,1752
2018-02-22T09:03:34.432Z,1756
2018-02-22T09:04:47.713Z,1760
2018-02-22T09:06:02.174Z,1768
2018-02-22T09:07:16.665Z,1768
2018-02-22T09:08:30.425Z,1768
2018-02-22T09:09:44.527Z,1764
2018-02-22T09:10:59.056Z,1768
2018-02-22T09:12:13.078Z,1780
2018-02-22T09:13:27.319Z,1788
2018-02-22T09:14:41.548Z,1800
2018-02-22T09:15:55.526Z,1808
2018-02-22T09:17:09.343Z,1804
2018-02-22T09:18:23.136Z,1808
2018-02-22T09:19:36.893Z,1800
2018-02-22T09:20:50.916Z,1796
2018-02-22T09:22:04.908Z,1792
2018-02-22T09:23:19.151Z,1804
2018-02-22T09:24:33.879Z,1828
2018-02-22T09:25:48.120Z,1824
2018-02-22T09:27:02.383Z,1812
2018-02-22T09:28:16.380Z,1824
2018-02-22T09:29:31.088Z,1824
2018-02-22T09:30:45.317Z,1832
2018-02-22T09:32:00.052Z,1832
2018-02-22T09:33:13.591Z,1844
2018-02-22T09:34:27.620Z,1852
2018-02-22T09:35:41.641Z,1860
2018-02-22T09:36:56.125Z,1876
2018-02-22T09:38:09.900Z,1888
2018-02-22T09:39:23.904Z,1892
2018-02-22T09:40:37.995Z,1892
2018-02-22T09:41:52.507Z,1884
2018-02-22T09:43:06.661Z,1892
2018-02-22T09:44:20.911Z,1892
2018-02-22T09:45:34.925Z,1892
2018-02-22T09:46:48.643Z,1904
2018-02-22T09:48:02.898Z,1892
2018-02-22T09:49:17.221Z,1880
2018-02-22T09:50:30.999Z,1872
2018-02-22T09:51:45.283Z,1872
2018-02-22T09:52:58.593Z,1876
2018-02-22T09:54:17.393Z,1856
2018-02-22T09:55:46.537Z,1872
2018-02-22T09:57:00.602Z,1864
2018-02-22T09:58:14.367Z,1880
2018-02-22T09:59:29.071Z,1884
2018-02-22T10:00:42.861Z,1892
2018-02-22T10:01:56.606Z,1888
2018-02-22T10:03:11.333Z,1908
2018-02-22T10:04:25.837Z,1908
2018-02-22T10:05:39.842Z,1908
2018-02-22T10:06:54.066Z,1900
2018-02-22T10:08:08.328Z,1908
2018-02-22T10:09:22.839Z,1900
2018-02-22T10:10:36.843Z,1904
2018-02-22T10:11:50.822Z,1900
2018-02-22T10:13:04.606Z,1912
2018-02-22T10:14:18.851Z,1916
2018-02-22T10:15:32.696Z,1920
2018-02-22T10:16:46.688Z,1928
2018-02-22T10:18:00.716Z,1928
2018-02-22T10:19:14.777Z,1916
2018-02-22T10:20:29.253Z,1936
2018-02-22T10:21:43.524Z,1924
2018-02-22T10:22:57.573Z,1912
2018-02-22T10:24:11.044Z,1932
2018-02-22T10:25:25.083Z,1928
2018-02-22T10:26:39.607Z,1936
2018-02-22T10:27:54.103Z,1936
2018-02-22T10:29:08.078Z,1940
2018-02-22T10:30:22.335Z,1952
2018-02-22T10:31:36.076Z,1956
2018-02-22T10:32:50.556Z,1928
2018-02-22T10:34:04.336Z,1932
2018-02-22T10:35:18.350Z,1924
2018-02-22T10:36:32.104Z,1916
2018-02-22T10:37:46.378Z,1904
2018-02-22T10:39:00.369Z,1892
2018-02-22T10:40:14.436Z,1900
2018-02-22T10:41:28.705Z,1904
2018-02-22T10:42:43.183Z,1900
2018-02-22T10:43:57.416Z,1900
2018-02-22T10:45:11.894Z,1904
2018-02-22T10:46:26.369Z,1904
2018-02-22T10:47:40.629Z,1908
2018-02-22T10:48:54.494Z,1912
2018-02-22T10:50:08.589Z,1908
2018-02-22T10:51:22.828Z,1916
2018-02-22T10:52:37.606Z,1928
2018-02-22T10:53:51.104Z,1940
2018-02-22T10:55:05.103Z,1936
2018-02-22T10:56:19.606Z,1932
2018-02-22T10:57:33.587Z,1932
2018-02-22T10:58:48.082Z,1940
2018-02-22T11:00:02.326Z,1944
2018-02-22T11:01:16.335Z,1936
2018-02-22T11:02:30.908Z,1908
2018-02-22T11:03:45.264Z,1908
2018-02-22T11:04:59.227Z,1924
2018-02-22T11:06:13.477Z,1964
2018-02-22T11:07:27.464Z,2044
2018-02-22T11:08:41.500Z,2492
2018-02-22T11:09:55.832Z,2560
2018-02-22T11:11:09.818Z,2000
2018-02-22T11:12:23.816Z,1888
2018-02-22T11:13:37.812Z,1884
2018-02-22T11:14:51.797Z,1872
2018-02-22T11:16:05.588Z,1872
2018-02-22T11:17:19.808Z,1880
2018-02-22T11:18:34.065Z,1852
2018-02-22T11:19:48.392Z,1852
2018-02-22T11:21:02.655Z,1852
2018-02-22T11:22:16.759Z,1868
2018-02-22T11:23:30.279Z,1884
2018-02-22T11:24:44.028Z,1844
2018-02-22T11:25:58.414Z,1856
2018-02-22T11:27:12.227Z,1864
2018-02-22T11:28:26.514Z,1864
2018-02-22T11:29:41.281Z,1892
2018-02-22T11:30:55.783Z,1896
2018-02-22T11:32:09.323Z,1932
2018-02-22T11:33:23.728Z,1920
2018-02-22T11:34:37.861Z,2040
2018-02-22T11:35:52.391Z,2216
2018-02-22T11:37:21.352Z,2000
2018-02-22T11:38:35.887Z,2072
2018-02-22T11:39:50.428Z,1616
2018-02-22T11:41:04.586Z,1808
2018-02-22T11:42:18.845Z,1780
2018-02-22T11:43:33.869Z,1776
2018-02-22T11:44:47.901Z,1764
2018-02-22T11:46:02.422Z,1736
2018-02-22T11:47:16.692Z,1736
2018-02-22T11:48:31.158Z,1728
2018-02-22T11:49:45.894Z,1736
2018-02-22T11:51:00.371Z,1720
2018-02-22T11:52:14.621Z,1724
2018-02-22T11:53:28.894Z,1720
2018-02-22T11:54:43.516Z,1732
2018-02-22T11:55:57.816Z,1716
2018-02-22T11:57:12.319Z,1700
2018-02-22T11:58:26.123Z,1700
2018-02-22T11:59:40.415Z,1704
2018-02-22T12:00:54.450Z,1716
2018-02-22T12:02:09.481Z,1720
2018-02-22T12:03:23.509Z,1716
2018-02-22T12:04:37.360Z,1720
2018-02-22T12:05:51.415Z,1700
2018-02-22T12:07:05.671Z,1700
2018-02-22T12:08:20.497Z,1700
2018-02-22T12:09:35.013Z,1696
2018-02-22T12:10:49.050Z,1700
2018-02-22T12:12:03.376Z,1692
2018-02-22T12:13:32.067Z,1688
2018-02-22T12:14:46.385Z,1684
2018-02-22T12:16:00.936Z,1684
2018-02-22T12:17:15.491Z,1676
2018-02-22T12:18:29.275Z,1688
2018-02-22T12:19:43.578Z,1684
2018-02-22T12:20:57.829Z,1688
2018-02-22T12:22:12.174Z,1696
2018-02-22T12:23:26.415Z,1696
2018-02-22T12:24:40.684Z,1676
2018-02-22T12:25:54.992Z,1680
2018-02-22T12:27:09.160Z,1688
2018-02-22T12:28:23.397Z,1684
2018-02-22T12:29:37.881Z,1684
2018-02-22T12:30:51.656Z,1684
2018-02-22T12:32:06.689Z,1692
2018-02-22T12:33:20.693Z,1688
2018-02-22T12:34:35.202Z,1672
2018-02-22T12:35:49.196Z,1688
2018-02-22T12:37:03.227Z,1628
2018-02-22T12:38:17.762Z,1688
2018-02-22T12:39:32.242Z,1688
2018-02-22T12:40:46.469Z,1484
2018-02-22T12:42:00.718Z,1704
2018-02-22T12:43:15.247Z,1636
2018-02-22T12:44:29.306Z,1712
2018-02-22T12:45:43.852Z,1748
2018-02-22T12:46:57.410Z,1700
2018-02-22T12:48:11.162Z,1708
2018-02-22T12:49:25.429Z,1712
2018-02-22T12:50:40.040Z,1700
2018-02-22T12:51:54.039Z,1704
2018-02-22T12:53:08.289Z,1704
2018-02-22T12:54:22.253Z,1708
2018-02-22T12:55:36.765Z,1712
2018-02-22T12:56:51.081Z,1708
2018-02-22T12:58:04.874Z,1712
2018-02-22T12:59:19.115Z,1692
2018-02-22T13:00:33.230Z,1716
2018-02-22T13:01:47.245Z,1724
2018-02-22T13:03:01.293Z,1724
2018-02-22T13:04:15.536Z,1720
2018-02-22T13:05:28.562Z,1720
2018-02-22T13:06:43.314Z,1720
2018-02-22T13:07:57.423Z,1720
2018-02-22T13:09:11.732Z,1724
2018-02-22T13:10:25.221Z,1724
2018-02-22T13:11:39.224Z,1724
2018-02-22T13:12:53.198Z,1732
2018-02-22T13:14:07.460Z,1728
2018-02-22T13:15:22.248Z,1724
2018-02-22T13:16:36.486Z,1720
2018-02-22T13:17:50.498Z,1720
2018-02-22T13:19:05.009Z,1720
2018-02-22T13:20:19.285Z,1720
2018-02-22T13:21:34.103Z,1724
2018-02-22T13:22:48.378Z,1728
2018-02-22T13:24:02.688Z,1728
2018-02-22T13:25:16.925Z,1724
2018-02-22T13:26:31.215Z,1720
2018-02-22T13:27:45.793Z,1716
2018-02-22T13:28:59.631Z,1716
2018-02-22T13:30:13.901Z,1716
2018-02-22T13:31:27.973Z,1712
2018-02-22T13:32:41.742Z,1708
2018-02-22T13:33:56.671Z,1704
2018-02-22T13:35:11.463Z,1704
2018-02-22T13:36:25.734Z,1704
2018-02-22T13:37:39.998Z,1700
2018-02-22T13:38:54.498Z,1696
2018-02-22T13:40:09.058Z,1692
2018-02-22T13:41:23.297Z,1688
2018-02-22T13:42:37.866Z,1684
2018-02-22T13:43:51.854Z,1688
2018-02-22T13:47:33.874Z,1684
2018-02-22T13:48:47.910Z,1684
2018-02-22T13:50:02.441Z,1676
2018-02-22T13:51:16.751Z,1672
2018-02-22T13:52:31.373Z,1664
2018-02-22T13:53:45.152Z,1660
2018-02-22T13:54:58.946Z,1660
2018-02-22T13:56:12.737Z,1660
2018-02-22T13:57:27.543Z,1652
2018-02-22T13:58:41.110Z,1652
2018-02-22T13:59:55.390Z,1648
2018-02-22T14:01:09.647Z,1644
2018-02-22T14:02:23.681Z,1640
2018-02-22T14:03:37.779Z,1644
2018-02-22T14:04:52.026Z,1644
2018-02-22T14:06:06.281Z,1640
2018-02-22T14:07:21.132Z,1636
2018-02-22T14:08:35.639Z,1632
2018-02-22T14:09:50.006Z,1624
2018-02-22T14:11:04.591Z,1624
2018-02-22T14:12:18.570Z,1620
2018-02-22T14:13:32.771Z,1616
2018-02-22T14:14:46.517Z,1612
2018-02-22T14:16:00.841Z,1608
2018-02-22T14:17:14.671Z,1600
2018-02-22T14:18:28.632Z,1596
2018-02-22T14:19:43.348Z,1596
2018-02-22T14:20:57.085Z,1592
2018-02-22T14:22:11.658Z,1588
2018-02-22T14:23:25.891Z,1592
2018-02-22T14:24:39.654Z,1588
2018-02-22T14:25:53.624Z,1584
2018-02-22T14:27:07.636Z,1580
2018-02-22T14:28:22.301Z,1572
2018-02-22T14:29:36.311Z,1568
2018-02-22T14:30:50.084Z,1564
2018-02-22T14:32:03.860Z,1556
2018-02-22T14:33:18.353Z,1552
2018-02-22T14:34:32.675Z,1548
2018-02-22T14:35:47.457Z,1548
2018-02-22T14:37:01.786Z,1548
2018-02-22T14:38:15.782Z,1540
2018-02-22T14:39:29.553Z,1532
2018-02-22T14:40:44.013Z,1528
2018-02-22T14:41:57.782Z,1524
2018-02-22T14:43:12.035Z,1520
2018-02-22T14:44:25.807Z,1516
2018-02-22T14:45:40.450Z,1508
2018-02-22T14:46:55.259Z,1508
2018-02-22T14:48:09.056Z,1500
2018-02-22T14:49:23.329Z,1492
2018-02-22T14:50:37.087Z,1484
2018-02-22T14:51:50.576Z,1476
2018-02-22T14:53:05.365Z,1472
2018-02-22T14:54:19.628Z,1468
2018-02-22T14:55:33.866Z,1456
2018-02-22T14:56:47.376Z,1452
2018-02-22T14:58:01.623Z,1448
2018-02-22T14:59:15.935Z,1440
2018-02-22T15:00:30.422Z,1432
2018-02-22T15:01:44.680Z,1424
2018-02-22T15:02:58.964Z,1420
2018-02-22T15:04:13.239Z,1408
2018-02-22T15:05:28.015Z,1404
2018-02-22T15:06:42.012Z,1392
2018-02-22T15:07:56.089Z,1388
2018-02-22T15:09:10.331Z,1380
2018-02-22T15:10:24.832Z,1372
2018-02-22T15:11:38.670Z,1364
2018-02-22T15:12:53.177Z,1356
2018-02-22T15:14:07.539Z,1352
2018-02-22T15:15:21.557Z,1340
2018-02-22T15:16:36.082Z,1332
2018-02-22T15:17:50.427Z,1324
2018-02-22T15:19:04.682Z,1316
2018-02-22T15:20:19.457Z,1304
2018-02-22T15:21:33.742Z,1296
2018-02-22T15:22:47.268Z,1288
2018-02-22T15:24:01.819Z,1276
2018-02-22T15:25:16.355Z,1272
2018-02-22T15:26:30.131Z,1256
2018-02-22T15:27:43.919Z,1252
2018-02-22T15:28:58.393Z,1240
2018-02-22T15:30:12.234Z,1228
2018-02-22T15:31:26.276Z,1220
2018-02-22T15:32:40.554Z,1208
2018-02-22T15:33:55.013Z,1200
2018-02-22T15:35:10.160Z,1188
2018-02-22T15:36:24.230Z,1176
2018-02-22T15:37:38.991Z,1164
2018-02-22T15:38:53.564Z,1148
2018-02-22T15:40:07.330Z,1136
2018-02-22T15:41:21.331Z,1128
2018-02-22T15:42:35.889Z,1112
2018-02-22T15:43:50.379Z,1100
2018-02-22T15:45:04.442Z,1088
2018-02-22T15:46:18.712Z,1072
2018-02-22T15:47:33.149Z,1056
2018-02-22T15:48:47.490Z,1048
2018-02-22T15:50:01.727Z,1032
2018-02-22T15:51:15.254Z,1020
2018-02-22T15:52:29.572Z,1008
2018-02-22T15:53:43.854Z,992
2018-02-22T15:54:58.723Z,980
2018-02-22T15:56:13.275Z,964
2018-02-22T15:57:27.825Z,948
2018-02-22T15:58:42.072Z,928
2018-02-22T15:59:56.345Z,916
2018-02-22T16:01:10.673Z,904
2018-02-22T16:02:24.924Z,884
2018-02-22T16:03:38.916Z,868
2018-02-22T16:04:52.915Z,848
2018-02-22T16:06:06.990Z,832
2018-02-22T16:07:21.592Z,816
2018-02-22T16:08:35.813Z,800
2018-02-22T16:09:50.065Z,780
2018-02-22T16:11:03.836Z,764
2018-02-22T16:12:18.341Z,748
2018-02-22T16:13:32.987Z,732
2018-02-22T16:14:47.253Z,712
2018-02-22T16:16:01.508Z,692
2018-02-22T16:17:15.252Z,672
2018-02-22T16:18:29.333Z,652
2018-02-22T16:19:43.894Z,632
2018-02-22T16:20:58.040Z,612
2018-02-22T16:22:11.803Z,588
2018-02-22T16:23:25.830Z,572
2018-02-22T16:24:39.395Z,552
2018-02-22T16:25:54.020Z,528
2018-02-22T16:27:08.048Z,508
2018-02-22T16:28:22.283Z,488
2018-02-22T16:29:36.792Z,464
2018-02-22T16:30:50.778Z,444
2018-02-22T16:32:05.162Z,424
2018-02-22T16:33:19.694Z,404
2018-02-22T16:34:33.980Z,380
2018-02-22T16:35:48.467Z,360
2018-02-22T16:37:02.828Z,336
2018-02-22T16:38:17.630Z,320
2018-02-22T16:39:31.658Z,296
2018-02-22T16:40:45.904Z,276
2018-02-22T16:41:59.693Z,256
2018-02-22T16:43:13.981Z,240
2018-02-22T16:44:28.782Z,220
2018-02-22T16:45:43.020Z,200
2018-02-22T16:46:56.552Z,184
2018-02-22T16:48:10.063Z,168
2018-02-22T16:49:24.571Z,156
2018-02-22T16:50:38.569Z,140
2018-02-22T16:51:52.825Z,120
2018-02-22T16:53:06.595Z,112
2018-02-22T16:54:20.935Z,100
2018-02-22T16:55:35.231Z,88
2018-02-22T16:56:49.802Z,76
2018-02-22T16:58:04.051Z,64
2018-02-22T16:59:17.560Z,56
2018-02-22T17:00:31.592Z,48
2018-02-22T17:01:45.876Z,44
2018-02-22T17:03:00.695Z,36
2018-02-22T17:04:14.735Z,28
2018-02-22T17:05:28.989Z,24
2018-02-22T17:06:43.481Z,20
2018-02-22T17:07:57.525Z,16
2018-02-22T17:09:11.637Z,12
2018-02-22T17:10:25.876Z,12
2018-02-22T17:11:40.186Z,12
2018-02-22T17:12:54.200Z,8
2018-02-22T17:14:08.472Z,4
2018-02-22T17:15:23.553Z,4